sensor_id;sensor_type;location;lat;lon;timestamp;pressure;altitude;pressure_sealevel;temperature;humidity
41830;BME280;38614;43.472;23.936;2023-02-21T00:02:41;100410.25;;;3.90;nan
41830;BME280;38614;43.472;23.936;2023-02-21T00:05:47;100431.41;;;3.98;nan
41830;BME280;38614;43.472;23.936;2023-02-21T00:08:53;100407.88;;;3.75;nan
41830;BME280;38614;43.472;23.936;2023-02-21T00:12:00;100439.84;;;3.88;nan
41830;BME280;38614;43.472;23.936;2023-02-21T00:15:06;100411.75;;;4.10;nan
41830;BME280;38614;43.472;23.936;2023-02-21T00:18:12;100384.63;;;4.22;nan
41830;BME280;38614;43.472;23.936;2023-02-21T00:21:18;100409.16;;;5.12;nan
41830;BME280;38614;43.472;23.936;2023-02-21T00:24:24;100407.03;;;5.66;nan
41830;BME280;38614;43.472;23.936;2023-02-21T00:27:31;100401.63;;;5.92;nan
41830;BME280;38614;43.472;23.936;2023-02-21T00:30:37;100379.81;;;5.87;nan
41830;BME280;38614;43.472;23.936;2023-02-21T00:33:43;100367.41;;;5.89;nan
41830;BME280;38614;43.472;23.936;2023-02-21T00:36:51;100385.16;;;6.00;nan
41830;BME280;38614;43.472;23.936;2023-02-21T00:39:57;100385.03;;;5.97;nan
41830;BME280;38614;43.472;23.936;2023-02-21T00:43:04;100382.28;;;6.14;nan
41830;BME280;38614;43.472;23.936;2023-02-21T00:46:10;100384.84;;;6.19;nan
41830;BME280;38614;43.472;23.936;2023-02-21T00:49:16;100377.28;;;6.08;nan
41830;BME280;38614;43.472;23.936;2023-02-21T00:52:22;100378.22;;;6.29;nan
41830;BME280;38614;43.472;23.936;2023-02-21T00:55:28;100367.88;;;6.52;nan
41830;BME280;38614;43.472;23.936;2023-02-21T00:58:35;100344.94;;;6.39;nan
41830;BME280;38614;43.472;23.936;2023-02-21T01:01:41;100346.06;;;6.38;nan
41830;BME280;38614;43.472;23.936;2023-02-21T01:04:48;100357.72;;;6.35;nan
41830;BME280;38614;43.472;23.936;2023-02-21T01:07:55;100345.72;;;6.57;nan
41830;BME280;38614;43.472;23.936;2023-02-21T01:11:01;100350.81;;;6.76;nan
41830;BME280;38614;43.472;23.936;2023-02-21T01:14:08;100345.03;;;6.69;nan
41830;BME280;38614;43.472;23.936;2023-02-21T01:17:14;100356.59;;;6.92;nan
41830;BME280;38614;43.472;23.936;2023-02-21T01:20:21;100340.19;;;7.33;nan
41830;BME280;38614;43.472;23.936;2023-02-21T01:23:27;100339.94;;;7.26;nan
41830;BME280;38614;43.472;23.936;2023-02-21T01:26:33;100310.94;;;7.08;nan
41830;BME280;38614;43.472;23.936;2023-02-21T01:29:39;100312.19;;;7.40;nan
41830;BME280;38614;43.472;23.936;2023-02-21T01:32:46;100319.25;;;7.70;nan
41830;BME280;38614;43.472;23.936;2023-02-21T01:35:52;100304.41;;;7.63;nan
41830;BME280;38614;43.472;23.936;2023-02-21T01:38:58;100284.69;;;7.61;nan
41830;BME280;38614;43.472;23.936;2023-02-21T01:42:04;100296.63;;;7.44;nan
41830;BME280;38614;43.472;23.936;2023-02-21T01:48:39;100294.63;;;7.53;nan
41830;BME280;38614;43.472;23.936;2023-02-21T01:51:45;100289.25;;;7.36;nan
41830;BME280;38614;43.472;23.936;2023-02-21T01:54:54;100302.25;;;7.27;nan
41830;BME280;38614;43.472;23.936;2023-02-21T01:58:01;100272.88;;;7.19;nan
41830;BME280;38614;43.472;23.936;2023-02-21T02:01:09;100295.81;;;7.23;nan
41830;BME280;38614;43.472;23.936;2023-02-21T02:04:17;100286.84;;;7.05;nan
41830;BME280;38614;43.472;23.936;2023-02-21T02:07:23;100288.66;;;7.01;nan
41830;BME280;38614;43.472;23.936;2023-02-21T02:10:30;100298.03;;;7.00;nan
41830;BME280;38614;43.472;23.936;2023-02-21T02:14:25;100289.38;;;6.89;nan
41830;BME280;38614;43.472;23.936;2023-02-21T02:26:24;100256.53;;;6.63;nan
41830;BME280;38614;43.472;23.936;2023-02-21T02:35:44;100299.50;;;6.97;nan
41830;BME280;38614;43.472;23.936;2023-02-21T02:38:41;100307.31;;;6.86;nan
41830;BME280;38614;43.472;23.936;2023-02-21T02:45:42;100295.00;;;6.54;nan
41830;BME280;38614;43.472;23.936;2023-02-21T02:48:09;100287.44;;;6.51;nan
41830;BME280;38614;43.472;23.936;2023-02-21T02:51:06;100272.44;;;6.40;nan
41830;BME280;38614;43.472;23.936;2023-02-21T02:53:55;100258.97;;;6.56;nan
41830;BME280;38614;43.472;23.936;2023-02-21T02:56:43;100285.53;;;6.81;nan
41830;BME280;38614;43.472;23.936;2023-02-21T02:59:32;100289.72;;;6.79;nan
41830;BME280;38614;43.472;23.936;2023-02-21T03:02:33;100279.50;;;6.88;nan
41830;BME280;38614;43.472;23.936;2023-02-21T03:11:09;100283.50;;;6.99;nan
41830;BME280;38614;43.472;23.936;2023-02-21T03:14:13;100258.88;;;6.82;nan
41830;BME280;38614;43.472;23.936;2023-02-21T03:17:06;100281.97;;;7.10;nan
41830;BME280;38614;43.472;23.936;2023-02-21T03:19:56;100276.50;;;7.10;nan
41830;BME280;38614;43.472;23.936;2023-02-21T03:22:46;100290.28;;;7.02;nan
41830;BME280;38614;43.472;23.936;2023-02-21T03:25:35;100264.09;;;6.66;nan
41830;BME280;38614;43.472;23.936;2023-02-21T03:28:25;100288.81;;;6.66;nan
41830;BME280;38614;43.472;23.936;2023-02-21T03:31:16;100293.88;;;6.55;nan
41830;BME280;38614;43.472;23.936;2023-02-21T03:34:08;100295.38;;;6.44;nan
41830;BME280;38614;43.472;23.936;2023-02-21T03:36:56;100284.75;;;6.25;nan
41830;BME280;38614;43.472;23.936;2023-02-21T03:39:44;100277.81;;;6.28;nan
41830;BME280;38614;43.472;23.936;2023-02-21T03:42:32;100269.88;;;6.35;nan
41830;BME280;38614;43.472;23.936;2023-02-21T03:45:21;100256.00;;;6.23;nan
41830;BME280;38614;43.472;23.936;2023-02-21T03:48:22;100253.56;;;6.39;nan
41830;BME280;38614;43.472;23.936;2023-02-21T03:51:30;100272.16;;;6.71;nan
41830;BME280;38614;43.472;23.936;2023-02-21T03:54:18;100288.72;;;6.92;nan
41830;BME280;38614;43.472;23.936;2023-02-21T03:57:09;100286.69;;;6.80;nan
41830;BME280;38614;43.472;23.936;2023-02-21T04:00:01;100292.97;;;6.81;nan
41830;BME280;38614;43.472;23.936;2023-02-21T04:02:50;100288.16;;;6.69;nan
41830;BME280;38614;43.472;23.936;2023-02-21T04:05:58;100285.75;;;6.68;nan
41830;BME280;38614;43.472;23.936;2023-02-21T04:08:48;100297.38;;;6.65;nan
41830;BME280;38614;43.472;23.936;2023-02-21T04:11:43;100293.09;;;6.46;nan
41830;BME280;38614;43.472;23.936;2023-02-21T04:14:34;100288.44;;;6.38;nan
41830;BME280;38614;43.472;23.936;2023-02-21T04:17:23;100284.59;;;6.22;nan
41830;BME280;38614;43.472;23.936;2023-02-21T04:20:14;100275.69;;;6.34;nan
41830;BME280;38614;43.472;23.936;2023-02-21T04:23:07;100274.38;;;6.40;nan
41830;BME280;38614;43.472;23.936;2023-02-21T04:25:55;100276.63;;;6.46;nan
41830;BME280;38614;43.472;23.936;2023-02-21T04:28:59;100285.03;;;6.33;nan
41830;BME280;38614;43.472;23.936;2023-02-21T04:31:52;100271.22;;;6.12;nan
41830;BME280;38614;43.472;23.936;2023-02-21T04:34:51;100273.81;;;5.82;nan
41830;BME280;38614;43.472;23.936;2023-02-21T04:37:45;100275.09;;;5.85;nan
41830;BME280;38614;43.472;23.936;2023-02-21T04:40:35;100261.25;;;5.64;nan
41830;BME280;38614;43.472;23.936;2023-02-21T04:43:23;100245.44;;;5.26;nan
41830;BME280;38614;43.472;23.936;2023-02-21T04:46:18;100230.44;;;5.06;nan
41830;BME280;38614;43.472;23.936;2023-02-21T04:49:06;100245.59;;;5.04;nan
41830;BME280;38614;43.472;23.936;2023-02-21T04:51:53;100235.41;;;4.96;nan
41830;BME280;38614;43.472;23.936;2023-02-21T04:54:41;100233.28;;;4.93;nan
41830;BME280;38614;43.472;23.936;2023-02-21T04:57:29;100223.78;;;4.81;nan
41830;BME280;38614;43.472;23.936;2023-02-21T05:00:23;100222.50;;;4.79;nan
41830;BME280;38614;43.472;23.936;2023-02-21T05:03:13;100212.16;;;4.67;nan
41830;BME280;38614;43.472;23.936;2023-02-21T05:06:03;100227.94;;;4.70;nan
41830;BME280;38614;43.472;23.936;2023-02-21T05:08:50;100223.25;;;4.71;nan
41830;BME280;38614;43.472;23.936;2023-02-21T05:11:38;100219.78;;;4.88;nan
41830;BME280;38614;43.472;23.936;2023-02-21T05:14:26;100224.75;;;4.85;nan
41830;BME280;38614;43.472;23.936;2023-02-21T05:17:14;100203.50;;;4.91;nan
41830;BME280;38614;43.472;23.936;2023-02-21T05:20:01;100220.44;;;5.10;nan
41830;BME280;38614;43.472;23.936;2023-02-21T05:22:49;100218.81;;;5.01;nan
41830;BME280;38614;43.472;23.936;2023-02-21T05:25:39;100210.28;;;4.94;nan
41830;BME280;38614;43.472;23.936;2023-02-21T05:32:05;100194.16;;;4.75;nan
41830;BME280;38614;43.472;23.936;2023-02-21T05:35:20;100158.56;;;4.75;nan
41830;BME280;38614;43.472;23.936;2023-02-21T05:38:28;100197.59;;;5.24;nan
41830;BME280;38614;43.472;23.936;2023-02-21T05:41:16;100201.25;;;5.80;nan
41830;BME280;38614;43.472;23.936;2023-02-21T05:44:04;100192.28;;;6.85;nan
41830;BME280;38614;43.472;23.936;2023-02-21T05:46:52;100162.06;;;7.06;nan
41830;BME280;38614;43.472;23.936;2023-02-21T05:49:46;100172.00;;;7.73;nan
41830;BME280;38614;43.472;23.936;2023-02-21T05:52:37;100186.59;;;7.98;nan
41830;BME280;38614;43.472;23.936;2023-02-21T05:55:25;100185.72;;;8.18;nan
41830;BME280;38614;43.472;23.936;2023-02-21T05:58:13;100184.94;;;8.30;nan
41830;BME280;38614;43.472;23.936;2023-02-21T06:01:18;100190.56;;;8.34;nan
41830;BME280;38614;43.472;23.936;2023-02-21T06:04:06;100193.56;;;8.28;nan
41830;BME280;38614;43.472;23.936;2023-02-21T06:06:57;100169.63;;;7.96;nan
41830;BME280;38614;43.472;23.936;2023-02-21T06:09:47;100202.25;;;8.18;nan
41830;BME280;38614;43.472;23.936;2023-02-21T06:12:38;100199.72;;;8.25;nan
41830;BME280;38614;43.472;23.936;2023-02-21T06:15:27;100194.78;;;8.19;nan
41830;BME280;38614;43.472;23.936;2023-02-21T06:18:32;100174.50;;;8.11;nan
41830;BME280;38614;43.472;23.936;2023-02-21T06:21:20;100193.22;;;8.91;nan
41830;BME280;38614;43.472;23.936;2023-02-21T06:24:09;100195.50;;;9.01;nan
41830;BME280;38614;43.472;23.936;2023-02-21T06:27:00;100194.53;;;9.34;nan
41830;BME280;38614;43.472;23.936;2023-02-21T06:29:48;100191.63;;;9.30;nan
41830;BME280;38614;43.472;23.936;2023-02-21T06:32:38;100181.72;;;9.01;nan
41830;BME280;38614;43.472;23.936;2023-02-21T06:35:29;100162.97;;;8.67;nan
41830;BME280;38614;43.472;23.936;2023-02-21T06:38:17;100182.81;;;8.84;nan
41830;BME280;38614;43.472;23.936;2023-02-21T06:41:07;100190.69;;;8.98;nan
41830;BME280;38614;43.472;23.936;2023-02-21T06:43:59;100169.03;;;8.84;nan
41830;BME280;38614;43.472;23.936;2023-02-21T06:47:00;100194.88;;;9.20;nan
41830;BME280;38614;43.472;23.936;2023-02-21T06:49:49;100194.31;;;9.27;nan
41830;BME280;38614;43.472;23.936;2023-02-21T06:53:15;100193.81;;;9.65;nan
41830;BME280;38614;43.472;23.936;2023-02-21T06:56:03;100175.03;;;9.98;nan
41830;BME280;38614;43.472;23.936;2023-02-21T06:58:54;100180.41;;;10.23;nan
41830;BME280;38614;43.472;23.936;2023-02-21T07:01:42;100187.50;;;10.87;nan
41830;BME280;38614;43.472;23.936;2023-02-21T07:04:34;100181.53;;;12.20;nan
41830;BME280;38614;43.472;23.936;2023-02-21T07:07:31;100167.75;;;13.30;nan
41830;BME280;38614;43.472;23.936;2023-02-21T07:10:19;100163.38;;;13.29;nan
41830;BME280;38614;43.472;23.936;2023-02-21T07:13:07;100145.25;;;13.08;nan
41830;BME280;38614;43.472;23.936;2023-02-21T07:15:54;100186.22;;;13.19;nan
41830;BME280;38614;43.472;23.936;2023-02-21T07:18:46;100182.78;;;13.25;nan
41830;BME280;38614;43.472;23.936;2023-02-21T07:21:34;100179.22;;;13.25;nan
41830;BME280;38614;43.472;23.936;2023-02-21T07:24:22;100178.88;;;13.30;nan
41830;BME280;38614;43.472;23.936;2023-02-21T07:27:10;100166.50;;;13.54;nan
41830;BME280;38614;43.472;23.936;2023-02-21T07:29:57;100152.69;;;13.98;nan
41830;BME280;38614;43.472;23.936;2023-02-21T07:32:45;100180.38;;;14.76;nan
41830;BME280;38614;43.472;23.936;2023-02-21T07:35:35;100171.97;;;15.34;nan
41830;BME280;38614;43.472;23.936;2023-02-21T07:38:25;100150.56;;;15.49;nan
41830;BME280;38614;43.472;23.936;2023-02-21T07:41:14;100169.69;;;15.54;nan
41830;BME280;38614;43.472;23.936;2023-02-21T07:44:02;100171.00;;;15.85;nan
41830;BME280;38614;43.472;23.936;2023-02-21T07:46:50;100175.03;;;16.06;nan
41830;BME280;38614;43.472;23.936;2023-02-21T07:49:39;100176.28;;;16.30;nan
41830;BME280;38614;43.472;23.936;2023-02-21T07:52:27;100180.25;;;16.46;nan
41830;BME280;38614;43.472;23.936;2023-02-21T07:55:15;100175.50;;;16.75;nan
41830;BME280;38614;43.472;23.936;2023-02-21T07:58:03;100155.16;;;16.75;nan
41830;BME280;38614;43.472;23.936;2023-02-21T08:00:51;100175.88;;;16.88;nan
41830;BME280;38614;43.472;23.936;2023-02-21T08:03:39;100177.09;;;16.76;nan
41830;BME280;38614;43.472;23.936;2023-02-21T08:06:27;100153.56;;;16.85;nan
41830;BME280;38614;43.472;23.936;2023-02-21T08:09:15;100168.69;;;16.98;nan
41830;BME280;38614;43.472;23.936;2023-02-21T08:12:03;100180.66;;;16.84;nan
41830;BME280;38614;43.472;23.936;2023-02-21T08:14:51;100170.25;;;17.06;nan
41830;BME280;38614;43.472;23.936;2023-02-21T08:17:38;100182.19;;;17.24;nan
41830;BME280;38614;43.472;23.936;2023-02-21T08:20:26;100177.03;;;17.05;nan
41830;BME280;38614;43.472;23.936;2023-02-21T08:23:14;100189.34;;;17.25;nan
41830;BME280;38614;43.472;23.936;2023-02-21T08:26:03;100186.53;;;17.32;nan
41830;BME280;38614;43.472;23.936;2023-02-21T08:28:51;100161.69;;;17.59;nan
41830;BME280;38614;43.472;23.936;2023-02-21T08:31:40;100169.06;;;18.02;nan
41830;BME280;38614;43.472;23.936;2023-02-21T08:34:28;100180.72;;;17.93;nan
41830;BME280;38614;43.472;23.936;2023-02-21T08:37:16;100192.78;;;17.79;nan
41830;BME280;38614;43.472;23.936;2023-02-21T08:40:06;100121.31;;;17.75;nan
41830;BME280;38614;43.472;23.936;2023-02-21T08:42:54;100179.22;;;18.33;nan
41830;BME280;38614;43.472;23.936;2023-02-21T08:45:42;100189.41;;;18.61;nan
41830;BME280;38614;43.472;23.936;2023-02-21T08:48:29;100169.28;;;18.81;nan
41830;BME280;38614;43.472;23.936;2023-02-21T08:51:17;100190.50;;;18.78;nan
41830;BME280;38614;43.472;23.936;2023-02-21T08:54:06;100147.03;;;18.66;nan
41830;BME280;38614;43.472;23.936;2023-02-21T08:56:54;100168.81;;;18.89;nan
41830;BME280;38614;43.472;23.936;2023-02-21T08:59:42;100177.06;;;19.03;nan
41830;BME280;38614;43.472;23.936;2023-02-21T09:02:31;100177.22;;;19.27;nan
41830;BME280;38614;43.472;23.936;2023-02-21T09:05:27;100158.25;;;19.38;nan
41830;BME280;38614;43.472;23.936;2023-02-21T09:08:16;100137.00;;;19.75;nan
41830;BME280;38614;43.472;23.936;2023-02-21T09:11:07;100160.28;;;20.26;nan
41830;BME280;38614;43.472;23.936;2023-02-21T09:13:55;100170.41;;;20.19;nan
41830;BME280;38614;43.472;23.936;2023-02-21T09:16:43;100171.88;;;19.74;nan
41830;BME280;38614;43.472;23.936;2023-02-21T09:19:34;100152.28;;;19.97;nan
41830;BME280;38614;43.472;23.936;2023-02-21T09:22:21;100130.13;;;20.06;nan
41830;BME280;38614;43.472;23.936;2023-02-21T09:25:10;100157.72;;;19.81;nan
41830;BME280;38614;43.472;23.936;2023-02-21T09:27:59;100164.31;;;19.98;nan
41830;BME280;38614;43.472;23.936;2023-02-21T09:30:48;100161.25;;;20.15;nan
41830;BME280;38614;43.472;23.936;2023-02-21T09:33:37;100157.63;;;19.88;nan
41830;BME280;38614;43.472;23.936;2023-02-21T09:36:28;100154.91;;;20.35;nan
41830;BME280;38614;43.472;23.936;2023-02-21T09:39:17;100145.69;;;20.11;nan
41830;BME280;38614;43.472;23.936;2023-02-21T09:42:12;100156.84;;;20.65;nan
41830;BME280;38614;43.472;23.936;2023-02-21T09:45:01;100157.53;;;20.72;nan
41830;BME280;38614;43.472;23.936;2023-02-21T09:47:53;100151.47;;;20.97;nan
41830;BME280;38614;43.472;23.936;2023-02-21T09:50:46;100162.50;;;21.08;nan
41830;BME280;38614;43.472;23.936;2023-02-21T09:53:37;100148.41;;;20.88;nan
41830;BME280;38614;43.472;23.936;2023-02-21T09:56:48;100140.75;;;20.69;nan
41830;BME280;38614;43.472;23.936;2023-02-21T09:59:40;100145.63;;;20.14;nan
41830;BME280;38614;43.472;23.936;2023-02-21T10:06:48;100132.91;;;19.79;nan
41830;BME280;38614;43.472;23.936;2023-02-21T10:09:45;100127.41;;;19.99;nan
41830;BME280;38614;43.472;23.936;2023-02-21T10:12:55;100122.06;;;20.08;nan
41830;BME280;38614;43.472;23.936;2023-02-21T10:16:20;100105.31;;;20.75;nan
41830;BME280;38614;43.472;23.936;2023-02-21T10:19:17;100110.56;;;21.16;nan
41830;BME280;38614;43.472;23.936;2023-02-21T10:22:19;100068.56;;;20.46;nan
41830;BME280;38614;43.472;23.936;2023-02-21T10:25:29;100115.69;;;20.58;nan
41830;BME280;38614;43.472;23.936;2023-02-21T10:28:21;100074.03;;;20.53;nan
41830;BME280;38614;43.472;23.936;2023-02-21T10:31:33;100100.69;;;21.08;nan
41830;BME280;38614;43.472;23.936;2023-02-21T10:34:29;100108.69;;;21.10;nan
41830;BME280;38614;43.472;23.936;2023-02-21T10:43:20;100092.69;;;20.87;nan
41830;BME280;38614;43.472;23.936;2023-02-21T10:46:19;100062.59;;;20.44;nan
41830;BME280;38614;43.472;23.936;2023-02-21T10:49:19;100068.41;;;20.96;nan
41830;BME280;38614;43.472;23.936;2023-02-21T10:52:14;100051.03;;;21.21;nan
41830;BME280;38614;43.472;23.936;2023-02-21T10:55:17;100076.75;;;21.20;nan
41830;BME280;38614;43.472;23.936;2023-02-21T10:58:21;100071.13;;;21.40;nan
41830;BME280;38614;43.472;23.936;2023-02-21T11:07:09;100067.25;;;21.53;nan
41830;BME280;38614;43.472;23.936;2023-02-21T11:09:58;100065.75;;;21.29;nan
41830;BME280;38614;43.472;23.936;2023-02-21T11:13:04;100054.72;;;21.90;nan
41830;BME280;38614;43.472;23.936;2023-02-21T11:19:04;100059.06;;;21.23;nan
41830;BME280;38614;43.472;23.936;2023-02-21T11:21:55;100026.75;;;21.31;nan
41830;BME280;38614;43.472;23.936;2023-02-21T11:31:26;100038.88;;;21.28;nan
41830;BME280;38614;43.472;23.936;2023-02-21T11:34:18;100026.34;;;21.32;nan
41830;BME280;38614;43.472;23.936;2023-02-21T11:37:06;100010.19;;;21.37;nan
41830;BME280;38614;43.472;23.936;2023-02-21T11:39:54;100025.38;;;21.39;nan
41830;BME280;38614;43.472;23.936;2023-02-21T11:42:42;100016.09;;;21.22;nan
41830;BME280;38614;43.472;23.936;2023-02-21T11:45:30;100023.44;;;21.16;nan
41830;BME280;38614;43.472;23.936;2023-02-21T11:48:21;100014.38;;;21.28;nan
41830;BME280;38614;43.472;23.936;2023-02-21T11:51:28;100011.91;;;21.30;nan
41830;BME280;38614;43.472;23.936;2023-02-21T11:54:22;100007.47;;;21.33;nan
41830;BME280;38614;43.472;23.936;2023-02-21T11:57:17;99988.88;;;20.99;nan
41830;BME280;38614;43.472;23.936;2023-02-21T12:09:26;99976.75;;;21.22;nan
41830;BME280;38614;43.472;23.936;2023-02-21T12:31:21;99935.66;;;20.92;nan
41830;BME280;38614;43.472;23.936;2023-02-21T12:37:41;99934.53;;;20.90;nan
41830;BME280;38614;43.472;23.936;2023-02-21T12:40:48;99946.31;;;21.01;nan
41830;BME280;38614;43.472;23.936;2023-02-21T12:44:11;99939.38;;;20.69;nan
41830;BME280;38614;43.472;23.936;2023-02-21T12:47:25;99942.34;;;20.62;nan
41830;BME280;38614;43.472;23.936;2023-02-21T12:50:17;99941.84;;;20.47;nan
41830;BME280;38614;43.472;23.936;2023-02-21T13:02:42;99941.09;;;20.43;nan
41830;BME280;38614;43.472;23.936;2023-02-21T13:05:45;99922.00;;;20.35;nan
41830;BME280;38614;43.472;23.936;2023-02-21T13:15:24;99917.53;;;20.37;nan
41830;BME280;38614;43.472;23.936;2023-02-21T13:18:20;99927.03;;;20.24;nan
41830;BME280;38614;43.472;23.936;2023-02-21T13:24:24;99915.03;;;20.23;nan
41830;BME280;38614;43.472;23.936;2023-02-21T13:27:55;99902.72;;;20.17;nan
41830;BME280;38614;43.472;23.936;2023-02-21T13:30:49;99914.88;;;20.10;nan
41830;BME280;38614;43.472;23.936;2023-02-21T13:33:56;99908.66;;;19.99;nan
41830;BME280;38614;43.472;23.936;2023-02-21T13:36:51;99905.06;;;19.99;nan
41830;BME280;38614;43.472;23.936;2023-02-21T13:40:21;99901.03;;;20.00;nan
41830;BME280;38614;43.472;23.936;2023-02-21T13:43:36;99889.53;;;19.71;nan
41830;BME280;38614;43.472;23.936;2023-02-21T13:49:40;99902.09;;;19.86;nan
41830;BME280;38614;43.472;23.936;2023-02-21T13:52:50;99900.75;;;19.94;nan
41830;BME280;38614;43.472;23.936;2023-02-21T13:55:39;99900.22;;;19.79;nan
41830;BME280;38614;43.472;23.936;2023-02-21T13:58:30;99904.78;;;19.70;nan
41830;BME280;38614;43.472;23.936;2023-02-21T14:05:17;99900.13;;;19.36;nan
41830;BME280;38614;43.472;23.936;2023-02-21T14:07:49;99883.44;;;19.29;nan
41830;BME280;38614;43.472;23.936;2023-02-21T14:10:48;99898.22;;;19.29;nan
41830;BME280;38614;43.472;23.936;2023-02-21T14:13:56;99901.63;;;19.17;nan
41830;BME280;38614;43.472;23.936;2023-02-21T14:17:04;99907.22;;;19.17;nan
41830;BME280;38614;43.472;23.936;2023-02-21T14:19:54;99906.53;;;19.10;nan
41830;BME280;38614;43.472;23.936;2023-02-21T14:22:57;99893.34;;;19.06;nan
41830;BME280;38614;43.472;23.936;2023-02-21T14:26:02;99895.69;;;19.12;nan
41830;BME280;38614;43.472;23.936;2023-02-21T14:29:15;99895.63;;;19.15;nan
41830;BME280;38614;43.472;23.936;2023-02-21T14:36:10;99895.84;;;19.01;nan
41830;BME280;38614;43.472;23.936;2023-02-21T14:39:01;99895.50;;;18.99;nan
41830;BME280;38614;43.472;23.936;2023-02-21T14:51:57;99893.41;;;18.76;nan
41830;BME280;38614;43.472;23.936;2023-02-21T15:04:50;99883.28;;;18.51;nan
41830;BME280;38614;43.472;23.936;2023-02-21T15:10:44;99890.59;;;18.42;nan
41830;BME280;38614;43.472;23.936;2023-02-21T15:13:34;99884.34;;;18.31;nan
41830;BME280;38614;43.472;23.936;2023-02-21T15:16:22;99882.97;;;18.15;nan
41830;BME280;38614;43.472;23.936;2023-02-21T15:19:40;99893.25;;;18.22;nan
41830;BME280;38614;43.472;23.936;2023-02-21T15:22:28;99885.69;;;18.19;nan
41830;BME280;38614;43.472;23.936;2023-02-21T15:25:17;99876.78;;;17.93;nan
41830;BME280;38614;43.472;23.936;2023-02-21T15:28:22;99893.94;;;17.95;nan
41830;BME280;38614;43.472;23.936;2023-02-21T15:31:11;99903.22;;;17.85;nan
41830;BME280;38614;43.472;23.936;2023-02-21T15:34:00;99913.69;;;17.78;nan
41830;BME280;38614;43.472;23.936;2023-02-21T15:37:00;99905.75;;;17.73;nan
41830;BME280;38614;43.472;23.936;2023-02-21T15:39:58;99914.94;;;17.66;nan
41830;BME280;38614;43.472;23.936;2023-02-21T15:42:48;99913.03;;;17.56;nan
41830;BME280;38614;43.472;23.936;2023-02-21T15:45:43;99922.81;;;17.33;nan
41830;BME280;38614;43.472;23.936;2023-02-21T15:48:37;99924.94;;;17.12;nan
41830;BME280;38614;43.472;23.936;2023-02-21T15:51:37;99931.91;;;16.86;nan
41830;BME280;38614;43.472;23.936;2023-02-21T15:54:38;99900.91;;;16.59;nan
41830;BME280;38614;43.472;23.936;2023-02-21T15:57:29;99924.41;;;16.61;nan
41830;BME280;38614;43.472;23.936;2023-02-21T16:00:42;99922.84;;;16.49;nan
41830;BME280;38614;43.472;23.936;2023-02-21T16:04:12;99928.94;;;16.19;nan
41830;BME280;38614;43.472;23.936;2023-02-21T16:06:56;99905.50;;;15.85;nan
41830;BME280;38614;43.472;23.936;2023-02-21T16:09:46;99921.81;;;15.86;nan
41830;BME280;38614;43.472;23.936;2023-02-21T16:12:38;99911.91;;;15.67;nan
41830;BME280;38614;43.472;23.936;2023-02-21T16:15:32;99933.75;;;15.48;nan
41830;BME280;38614;43.472;23.936;2023-02-21T16:18:21;99926.94;;;15.17;nan
41830;BME280;38614;43.472;23.936;2023-02-21T16:21:21;99922.94;;;14.89;nan
41830;BME280;38614;43.472;23.936;2023-02-21T16:24:28;99945.53;;;14.73;nan
41830;BME280;38614;43.472;23.936;2023-02-21T16:27:17;99939.13;;;14.59;nan
41830;BME280;38614;43.472;23.936;2023-02-21T16:30:09;99955.72;;;14.44;nan
41830;BME280;38614;43.472;23.936;2023-02-21T16:33:03;99955.66;;;14.34;nan
41830;BME280;38614;43.472;23.936;2023-02-21T16:35:51;99970.72;;;14.25;nan
41830;BME280;38614;43.472;23.936;2023-02-21T16:38:41;99969.41;;;14.09;nan
41830;BME280;38614;43.472;23.936;2023-02-21T16:41:29;99948.13;;;13.72;nan
41830;BME280;38614;43.472;23.936;2023-02-21T16:44:17;99969.94;;;13.77;nan
41830;BME280;38614;43.472;23.936;2023-02-21T16:47:05;99962.66;;;13.58;nan
41830;BME280;38614;43.472;23.936;2023-02-21T16:49:53;99984.47;;;13.56;nan
41830;BME280;38614;43.472;23.936;2023-02-21T16:52:41;99982.28;;;13.32;nan
41830;BME280;38614;43.472;23.936;2023-02-21T16:55:30;99975.97;;;13.01;nan
41830;BME280;38614;43.472;23.936;2023-02-21T16:58:31;99992.09;;;13.26;nan
41830;BME280;38614;43.472;23.936;2023-02-21T17:01:27;99989.03;;;13.01;nan
41830;BME280;38614;43.472;23.936;2023-02-21T17:05:08;99976.03;;;12.75;nan
41830;BME280;38614;43.472;23.936;2023-02-21T17:11:09;99965.91;;;12.56;nan
41830;BME280;38614;43.472;23.936;2023-02-21T17:13:58;99999.56;;;12.84;nan
41830;BME280;38614;43.472;23.936;2023-02-21T17:17:01;99987.69;;;12.88;nan
41830;BME280;38614;43.472;23.936;2023-02-21T17:19:51;99986.78;;;12.76;nan
41830;BME280;38614;43.472;23.936;2023-02-21T17:22:39;99996.63;;;12.74;nan
41830;BME280;38614;43.472;23.936;2023-02-21T17:25:27;99986.41;;;12.78;nan
41830;BME280;38614;43.472;23.936;2023-02-21T17:28:15;100000.06;;;12.64;nan
41830;BME280;38614;43.472;23.936;2023-02-21T17:31:03;100003.22;;;12.62;nan
41830;BME280;38614;43.472;23.936;2023-02-21T17:33:51;99990.66;;;12.72;nan
41830;BME280;38614;43.472;23.936;2023-02-21T17:36:40;99998.94;;;12.68;nan
41830;BME280;38614;43.472;23.936;2023-02-21T17:39:28;99995.00;;;12.69;nan
41830;BME280;38614;43.472;23.936;2023-02-21T17:42:15;100001.00;;;12.75;nan
41830;BME280;38614;43.472;23.936;2023-02-21T17:45:07;99991.56;;;12.79;nan
41830;BME280;38614;43.472;23.936;2023-02-21T17:47:55;100008.38;;;12.64;nan
41830;BME280;38614;43.472;23.936;2023-02-21T17:50:43;100007.16;;;12.61;nan
41830;BME280;38614;43.472;23.936;2023-02-21T17:53:30;100015.72;;;12.49;nan
41830;BME280;38614;43.472;23.936;2023-02-21T17:56:21;100010.72;;;12.32;nan
41830;BME280;38614;43.472;23.936;2023-02-21T17:59:10;100027.84;;;12.11;nan
41830;BME280;38614;43.472;23.936;2023-02-21T18:01:58;100022.69;;;11.86;nan
41830;BME280;38614;43.472;23.936;2023-02-21T18:04:49;99998.13;;;11.39;nan